sensor_id;sensor_type;location;lat;lon;timestamp;P1;durP1;ratioP1;P2;durP2;ratioP2
46675;SDS011;32412;51.478;5.694;2022-11-15T00:02:08;33.83;;;17.90;;
46675;SDS011;32412;51.478;5.694;2022-11-15T00:04:34;34.75;;;18.38;;
46675;SDS011;32412;51.478;5.694;2022-11-15T00:07:00;30.92;;;17.10;;
46675;SDS011;32412;51.478;5.694;2022-11-15T00:09:27;34.58;;;17.60;;
46675;SDS011;32412;51.478;5.694;2022-11-15T00:11:53;37.70;;;18.48;;
46675;SDS011;32412;51.478;5.694;2022-11-15T00:14:18;35.58;;;18.45;;
46675;SDS011;32412;51.478;5.694;2022-11-15T00:16:47;33.17;;;17.85;;
46675;SDS011;32412;51.478;5.694;2022-11-15T00:19:12;30.38;;;16.63;;
46675;SDS011;32412;51.478;5.694;2022-11-15T00:21:38;33.70;;;18.67;;
46675;SDS011;32412;51.478;5.694;2022-11-15T00:24:04;35.33;;;18.38;;
46675;SDS011;32412;51.478;5.694;2022-11-15T00:26:30;33.17;;;19.33;;
46675;SDS011;32412;51.478;5.694;2022-11-15T00:28:57;28.23;;;17.13;;
46675;SDS011;32412;51.478;5.694;2022-11-15T00:31:22;31.55;;;17.52;;
46675;SDS011;32412;51.478;5.694;2022-11-15T00:33:48;30.20;;;17.10;;
46675;SDS011;32412;51.478;5.694;2022-11-15T00:36:14;31.02;;;17.08;;
46675;SDS011;32412;51.478;5.694;2022-11-15T00:38:42;28.55;;;16.77;;
46675;SDS011;32412;51.478;5.694;2022-11-15T00:41:08;33.90;;;17.15;;
46675;SDS011;32412;51.478;5.694;2022-11-15T00:43:34;30.38;;;17.60;;
46675;SDS011;32412;51.478;5.694;2022-11-15T00:46:00;30.42;;;17.58;;
46675;SDS011;32412;51.478;5.694;2022-11-15T00:48:27;31.48;;;17.50;;
46675;SDS011;32412;51.478;5.694;2022-11-15T00:50:52;30.42;;;17.05;;
46675;SDS011;32412;51.478;5.694;2022-11-15T00:53:18;31.60;;;18.75;;
46675;SDS011;32412;51.478;5.694;2022-11-15T00:55:44;31.25;;;17.48;;
46675;SDS011;32412;51.478;5.694;2022-11-15T00:58:09;34.22;;;18.45;;
46675;SDS011;32412;51.478;5.694;2022-11-15T01:00:35;32.67;;;17.42;;
46675;SDS011;32412;51.478;5.694;2022-11-15T01:03:01;30.98;;;17.48;;
46675;SDS011;32412;51.478;5.694;2022-11-15T01:05:30;32.13;;;17.75;;
46675;SDS011;32412;51.478;5.694;2022-11-15T01:07:56;32.72;;;18.13;;
46675;SDS011;32412;51.478;5.694;2022-11-15T01:10:24;31.88;;;18.13;;
46675;SDS011;32412;51.478;5.694;2022-11-15T01:12:50;30.55;;;17.55;;
46675;SDS011;32412;51.478;5.694;2022-11-15T01:15:16;32.28;;;18.30;;
46675;SDS011;32412;51.478;5.694;2022-11-15T01:17:42;33.35;;;18.85;;
46675;SDS011;32412;51.478;5.694;2022-11-15T01:20:08;29.25;;;17.45;;
46675;SDS011;32412;51.478;5.694;2022-11-15T01:22:38;30.85;;;17.02;;
46675;SDS011;32412;51.478;5.694;2022-11-15T01:25:04;36.28;;;18.65;;
46675;SDS011;32412;51.478;5.694;2022-11-15T01:27:30;36.75;;;19.85;;
46675;SDS011;32412;51.478;5.694;2022-11-15T01:29:56;34.58;;;19.45;;
46675;SDS011;32412;51.478;5.694;2022-11-15T01:32:25;29.92;;;17.20;;
46675;SDS011;32412;51.478;5.694;2022-11-15T01:34:50;36.13;;;18.35;;
46675;SDS011;32412;51.478;5.694;2022-11-15T01:37:16;34.00;;;18.52;;
46675;SDS011;32412;51.478;5.694;2022-11-15T01:39:42;35.38;;;19.08;;
46675;SDS011;32412;51.478;5.694;2022-11-15T01:42:11;32.42;;;18.20;;
46675;SDS011;32412;51.478;5.694;2022-11-15T01:44:46;33.33;;;18.75;;
46675;SDS011;32412;51.478;5.694;2022-11-15T01:50:06;34.30;;;18.52;;
46675;SDS011;32412;51.478;5.694;2022-11-15T01:52:35;34.45;;;18.92;;
46675;SDS011;32412;51.478;5.694;2022-11-15T01:57:28;40.13;;;19.60;;
46675;SDS011;32412;51.478;5.694;2022-11-15T01:59:54;38.72;;;18.58;;
46675;SDS011;32412;51.478;5.694;2022-11-15T02:02:21;37.28;;;19.65;;
46675;SDS011;32412;51.478;5.694;2022-11-15T02:04:49;37.50;;;18.88;;
46675;SDS011;32412;51.478;5.694;2022-11-15T02:07:16;39.33;;;19.20;;
46675;SDS011;32412;51.478;5.694;2022-11-15T02:09:46;35.40;;;18.40;;
46675;SDS011;32412;51.478;5.694;2022-11-15T02:12:13;37.92;;;19.42;;
46675;SDS011;32412;51.478;5.694;2022-11-15T02:14:48;40.10;;;20.15;;
46675;SDS011;32412;51.478;5.694;2022-11-15T02:34:16;37.42;;;19.92;;
46675;SDS011;32412;51.478;5.694;2022-11-15T02:37:16;36.38;;;18.38;;
46675;SDS011;32412;51.478;5.694;2022-11-15T02:40:17;36.30;;;19.98;;
46675;SDS011;32412;51.478;5.694;2022-11-15T02:42:49;39.45;;;19.63;;
46675;SDS011;32412;51.478;5.694;2022-11-15T02:45:40;42.80;;;20.35;;
46675;SDS011;32412;51.478;5.694;2022-11-15T02:48:10;35.60;;;19.20;;
46675;SDS011;32412;51.478;5.694;2022-11-15T02:50:40;38.30;;;19.65;;
46675;SDS011;32412;51.478;5.694;2022-11-15T02:53:07;35.85;;;19.08;;
46675;SDS011;32412;51.478;5.694;2022-11-15T02:55:34;37.10;;;19.13;;
46675;SDS011;32412;51.478;5.694;2022-11-15T03:00:50;38.47;;;19.95;;
46675;SDS011;32412;51.478;5.694;2022-11-15T03:03:33;34.55;;;19.75;;
46675;SDS011;32412;51.478;5.694;2022-11-15T03:06:34;37.22;;;19.75;;
46675;SDS011;32412;51.478;5.694;2022-11-15T03:09:08;32.33;;;19.05;;
46675;SDS011;32412;51.478;5.694;2022-11-15T03:11:55;40.10;;;18.67;;
46675;SDS011;32412;51.478;5.694;2022-11-15T03:14:34;33.50;;;17.50;;
46675;SDS011;32412;51.478;5.694;2022-11-15T03:20:03;39.45;;;20.00;;
46675;SDS011;32412;51.478;5.694;2022-11-15T03:22:35;35.75;;;19.20;;
46675;SDS011;32412;51.478;5.694;2022-11-15T03:25:05;39.40;;;19.83;;
46675;SDS011;32412;51.478;5.694;2022-11-15T03:27:39;34.60;;;19.10;;
46675;SDS011;32412;51.478;5.694;2022-11-15T03:30:09;43.75;;;20.15;;
46675;SDS011;32412;51.478;5.694;2022-11-15T03:32:47;31.92;;;18.90;;
46675;SDS011;32412;51.478;5.694;2022-11-15T03:35:20;36.35;;;19.30;;
46675;SDS011;32412;51.478;5.694;2022-11-15T03:37:53;34.47;;;18.95;;
46675;SDS011;32412;51.478;5.694;2022-11-15T03:40:30;41.78;;;19.65;;
46675;SDS011;32412;51.478;5.694;2022-11-15T03:46:31;32.85;;;18.08;;
46675;SDS011;32412;51.478;5.694;2022-11-15T03:49:02;37.08;;;18.45;;
46675;SDS011;32412;51.478;5.694;2022-11-15T03:51:36;35.50;;;19.23;;
46675;SDS011;32412;51.478;5.694;2022-11-15T03:54:03;37.05;;;19.35;;
46675;SDS011;32412;51.478;5.694;2022-11-15T03:56:29;38.40;;;20.30;;
46675;SDS011;32412;51.478;5.694;2022-11-15T03:58:58;35.97;;;20.10;;
46675;SDS011;32412;51.478;5.694;2022-11-15T04:01:27;40.83;;;20.80;;
46675;SDS011;32412;51.478;5.694;2022-11-15T04:03:56;43.75;;;21.00;;
46675;SDS011;32412;51.478;5.694;2022-11-15T04:06:22;37.67;;;19.40;;
46675;SDS011;32412;51.478;5.694;2022-11-15T04:08:48;39.50;;;20.20;;
46675;SDS011;32412;51.478;5.694;2022-11-15T04:11:13;40.42;;;20.30;;
46675;SDS011;32412;51.478;5.694;2022-11-15T04:13:39;41.03;;;21.55;;
46675;SDS011;32412;51.478;5.694;2022-11-15T04:16:05;38.95;;;20.50;;
46675;SDS011;32412;51.478;5.694;2022-11-15T04:18:31;36.53;;;19.42;;
46675;SDS011;32412;51.478;5.694;2022-11-15T04:21:02;38.33;;;19.95;;
46675;SDS011;32412;51.478;5.694;2022-11-15T04:26:21;36.85;;;18.25;;
46675;SDS011;32412;51.478;5.694;2022-11-15T04:28:48;46.53;;;19.55;;
46675;SDS011;32412;51.478;5.694;2022-11-15T04:31:35;37.70;;;20.55;;
46675;SDS011;32412;51.478;5.694;2022-11-15T04:34:00;38.80;;;19.15;;
46675;SDS011;32412;51.478;5.694;2022-11-15T04:36:26;33.13;;;18.02;;
46675;SDS011;32412;51.478;5.694;2022-11-15T04:39:11;35.58;;;19.20;;
46675;SDS011;32412;51.478;5.694;2022-11-15T04:41:36;31.80;;;18.83;;
46675;SDS011;32412;51.478;5.694;2022-11-15T04:44:05;38.25;;;20.58;;
46675;SDS011;32412;51.478;5.694;2022-11-15T04:46:35;33.83;;;18.88;;
46675;SDS011;32412;51.478;5.694;2022-11-15T04:49:26;34.47;;;19.20;;
46675;SDS011;32412;51.478;5.694;2022-11-15T04:51:55;34.83;;;19.08;;
46675;SDS011;32412;51.478;5.694;2022-11-15T04:54:21;33.88;;;18.33;;
46675;SDS011;32412;51.478;5.694;2022-11-15T04:56:50;34.92;;;19.52;;
46675;SDS011;32412;51.478;5.694;2022-11-15T04:59:18;30.73;;;19.02;;
46675;SDS011;32412;51.478;5.694;2022-11-15T05:01:47;31.63;;;18.02;;
46675;SDS011;32412;51.478;5.694;2022-11-15T05:06:49;32.45;;;19.17;;
46675;SDS011;32412;51.478;5.694;2022-11-15T05:09:17;32.83;;;20.00;;
46675;SDS011;32412;51.478;5.694;2022-11-15T05:11:48;31.85;;;18.45;;
46675;SDS011;32412;51.478;5.694;2022-11-15T05:14:14;31.88;;;18.80;;
46675;SDS011;32412;51.478;5.694;2022-11-15T05:16:40;35.33;;;18.70;;
46675;SDS011;32412;51.478;5.694;2022-11-15T05:19:07;35.33;;;18.52;;
46675;SDS011;32412;51.478;5.694;2022-11-15T05:24:14;32.40;;;19.13;;
46675;SDS011;32412;51.478;5.694;2022-11-15T05:32:41;35.92;;;19.48;;
46675;SDS011;32412;51.478;5.694;2022-11-15T05:35:07;36.13;;;19.50;;
46675;SDS011;32412;51.478;5.694;2022-11-15T05:37:37;38.33;;;18.55;;
46675;SDS011;32412;51.478;5.694;2022-11-15T05:40:08;37.30;;;19.40;;
46675;SDS011;32412;51.478;5.694;2022-11-15T05:42:34;33.42;;;19.30;;
46675;SDS011;32412;51.478;5.694;2022-11-15T05:45:00;38.40;;;19.55;;
46675;SDS011;32412;51.478;5.694;2022-11-15T05:47:29;35.83;;;19.02;;
46675;SDS011;32412;51.478;5.694;2022-11-15T05:49:56;33.03;;;18.23;;
46675;SDS011;32412;51.478;5.694;2022-11-15T05:52:25;32.28;;;17.63;;
46675;SDS011;32412;51.478;5.694;2022-11-15T05:54:55;34.50;;;18.75;;
46675;SDS011;32412;51.478;5.694;2022-11-15T05:57:25;34.58;;;18.63;;
46675;SDS011;32412;51.478;5.694;2022-11-15T05:59:54;42.75;;;19.30;;
46675;SDS011;32412;51.478;5.694;2022-11-15T06:02:22;34.92;;;18.48;;
46675;SDS011;32412;51.478;5.694;2022-11-15T06:05:05;34.00;;;18.38;;
46675;SDS011;32412;51.478;5.694;2022-11-15T06:07:31;36.45;;;20.02;;
46675;SDS011;32412;51.478;5.694;2022-11-15T06:09:57;41.90;;;20.42;;
46675;SDS011;32412;51.478;5.694;2022-11-15T06:12:22;33.72;;;19.00;;
46675;SDS011;32412;51.478;5.694;2022-11-15T06:14:51;36.97;;;18.90;;
46675;SDS011;32412;51.478;5.694;2022-11-15T06:17:22;36.72;;;19.25;;
46675;SDS011;32412;51.478;5.694;2022-11-15T06:19:48;40.45;;;19.58;;
46675;SDS011;32412;51.478;5.694;2022-11-15T06:22:13;32.45;;;17.83;;
46675;SDS011;32412;51.478;5.694;2022-11-15T06:24:44;32.28;;;16.30;;
46675;SDS011;32412;51.478;5.694;2022-11-15T06:27:11;30.02;;;15.95;;
46675;SDS011;32412;51.478;5.694;2022-11-15T06:29:37;26.88;;;14.57;;
46675;SDS011;32412;51.478;5.694;2022-11-15T06:32:04;26.23;;;15.65;;
46675;SDS011;32412;51.478;5.694;2022-11-15T06:34:30;28.13;;;15.73;;
46675;SDS011;32412;51.478;5.694;2022-11-15T06:36:55;27.55;;;16.10;;
46675;SDS011;32412;51.478;5.694;2022-11-15T06:39:21;32.15;;;17.27;;
46675;SDS011;32412;51.478;5.694;2022-11-15T06:41:47;33.35;;;18.13;;
46675;SDS011;32412;51.478;5.694;2022-11-15T06:44:13;28.55;;;16.50;;
46675;SDS011;32412;51.478;5.694;2022-11-15T06:46:38;32.90;;;16.67;;
46675;SDS011;32412;51.478;5.694;2022-11-15T06:49:04;30.45;;;15.65;;
46675;SDS011;32412;51.478;5.694;2022-11-15T06:51:30;30.90;;;16.38;;
46675;SDS011;32412;51.478;5.694;2022-11-15T06:53:55;27.15;;;16.05;;
46675;SDS011;32412;51.478;5.694;2022-11-15T06:56:21;29.67;;;15.45;;
46675;SDS011;32412;51.478;5.694;2022-11-15T06:58:47;28.65;;;15.57;;
46675;SDS011;32412;51.478;5.694;2022-11-15T07:01:12;26.90;;;14.00;;
46675;SDS011;32412;51.478;5.694;2022-11-15T07:03:39;26.05;;;14.50;;
46675;SDS011;32412;51.478;5.694;2022-11-15T07:06:06;29.30;;;15.02;;
46675;SDS011;32412;51.478;5.694;2022-11-15T07:08:33;29.23;;;14.45;;
46675;SDS011;32412;51.478;5.694;2022-11-15T07:10:59;30.08;;;13.65;;
46675;SDS011;32412;51.478;5.694;2022-11-15T07:13:27;26.95;;;13.82;;
46675;SDS011;32412;51.478;5.694;2022-11-15T07:15:53;28.80;;;13.77;;
46675;SDS011;32412;51.478;5.694;2022-11-15T07:18:19;23.60;;;13.13;;
46675;SDS011;32412;51.478;5.694;2022-11-15T07:20:45;27.48;;;14.05;;
46675;SDS011;32412;51.478;5.694;2022-11-15T07:23:11;29.65;;;13.43;;
46675;SDS011;32412;51.478;5.694;2022-11-15T07:25:36;32.28;;;13.77;;
46675;SDS011;32412;51.478;5.694;2022-11-15T07:28:02;24.80;;;12.60;;
46675;SDS011;32412;51.478;5.694;2022-11-15T07:30:28;23.52;;;12.82;;
46675;SDS011;32412;51.478;5.694;2022-11-15T07:32:55;29.25;;;12.38;;
46675;SDS011;32412;51.478;5.694;2022-11-15T07:35:22;24.55;;;12.93;;
46675;SDS011;32412;51.478;5.694;2022-11-15T07:37:55;22.75;;;11.48;;
46675;SDS011;32412;51.478;5.694;2022-11-15T07:40:26;26.73;;;12.57;;
46675;SDS011;32412;51.478;5.694;2022-11-15T07:43:00;21.27;;;11.35;;
46675;SDS011;32412;51.478;5.694;2022-11-15T07:45:27;23.17;;;11.93;;
46675;SDS011;32412;51.478;5.694;2022-11-15T07:47:53;23.40;;;11.75;;
46675;SDS011;32412;51.478;5.694;2022-11-15T07:50:20;19.83;;;11.50;;
46675;SDS011;32412;51.478;5.694;2022-11-15T07:52:50;21.98;;;11.40;;
46675;SDS011;32412;51.478;5.694;2022-11-15T07:55:19;20.52;;;11.48;;
46675;SDS011;32412;51.478;5.694;2022-11-15T07:57:44;21.58;;;11.85;;
46675;SDS011;32412;51.478;5.694;2022-11-15T08:00:10;21.08;;;11.57;;
46675;SDS011;32412;51.478;5.694;2022-11-15T08:02:36;20.27;;;11.80;;
46675;SDS011;32412;51.478;5.694;2022-11-15T08:05:02;20.92;;;11.70;;
46675;SDS011;32412;51.478;5.694;2022-11-15T08:07:29;18.00;;;11.05;;
46675;SDS011;32412;51.478;5.694;2022-11-15T08:09:56;20.13;;;11.30;;
46675;SDS011;32412;51.478;5.694;2022-11-15T08:12:22;19.95;;;10.55;;
46675;SDS011;32412;51.478;5.694;2022-11-15T08:14:47;16.40;;;10.00;;
46675;SDS011;32412;51.478;5.694;2022-11-15T08:17:13;16.52;;;10.40;;
46675;SDS011;32412;51.478;5.694;2022-11-15T08:19:39;15.85;;;9.13;;
46675;SDS011;32412;51.478;5.694;2022-11-15T08:22:12;15.25;;;9.75;;
46675;SDS011;32412;51.478;5.694;2022-11-15T08:24:44;14.27;;;8.68;;
46675;SDS011;32412;51.478;5.694;2022-11-15T08:27:09;17.40;;;9.15;;
46675;SDS011;32412;51.478;5.694;2022-11-15T08:29:47;16.45;;;8.93;;
46675;SDS011;32412;51.478;5.694;2022-11-15T08:34:39;13.57;;;9.07;;
46675;SDS011;32412;51.478;5.694;2022-11-15T08:37:05;16.23;;;8.60;;
46675;SDS011;32412;51.478;5.694;2022-11-15T08:39:31;17.95;;;8.88;;
46675;SDS011;32412;51.478;5.694;2022-11-15T08:41:56;15.75;;;8.65;;
46675;SDS011;32412;51.478;5.694;2022-11-15T08:44:22;15.02;;;8.35;;
46675;SDS011;32412;51.478;5.694;2022-11-15T08:46:49;14.02;;;8.30;;
46675;SDS011;32412;51.478;5.694;2022-11-15T08:49:14;12.43;;;8.15;;
46675;SDS011;32412;51.478;5.694;2022-11-15T08:51:40;14.55;;;7.57;;
46675;SDS011;32412;51.478;5.694;2022-11-15T08:54:06;8.30;;;6.68;;
46675;SDS011;32412;51.478;5.694;2022-11-15T08:56:32;12.65;;;6.88;;
46675;SDS011;32412;51.478;5.694;2022-11-15T08:58:57;10.38;;;6.78;;
46675;SDS011;32412;51.478;5.694;2022-11-15T09:01:23;10.98;;;6.57;;
46675;SDS011;32412;51.478;5.694;2022-11-15T09:03:48;10.75;;;6.85;;
46675;SDS011;32412;51.478;5.694;2022-11-15T09:06:14;12.13;;;6.75;;
46675;SDS011;32412;51.478;5.694;2022-11-15T09:08:40;10.77;;;6.28;;
46675;SDS011;32412;51.478;5.694;2022-11-15T09:11:06;8.18;;;5.93;;
46675;SDS011;32412;51.478;5.694;2022-11-15T09:13:33;11.77;;;5.43;;
46675;SDS011;32412;51.478;5.694;2022-11-15T09:16:00;8.45;;;5.25;;
46675;SDS011;32412;51.478;5.694;2022-11-15T09:18:26;7.20;;;4.93;;
46675;SDS011;32412;51.478;5.694;2022-11-15T09:20:54;5.68;;;4.40;;
46675;SDS011;32412;51.478;5.694;2022-11-15T09:23:22;6.15;;;4.57;;
46675;SDS011;32412;51.478;5.694;2022-11-15T09:25:47;7.43;;;4.43;;
46675;SDS011;32412;51.478;5.694;2022-11-15T09:28:13;6.60;;;4.70;;
46675;SDS011;32412;51.478;5.694;2022-11-15T09:30:39;7.40;;;4.05;;
46675;SDS011;32412;51.478;5.694;2022-11-15T09:33:08;7.22;;;3.95;;
46675;SDS011;32412;51.478;5.694;2022-11-15T09:35:35;5.50;;;3.78;;
46675;SDS011;32412;51.478;5.694;2022-11-15T09:38:01;4.75;;;3.85;;
46675;SDS011;32412;51.478;5.694;2022-11-15T09:40:27;6.97;;;3.35;;
46675;SDS011;32412;51.478;5.694;2022-11-15T09:45:21;5.75;;;2.97;;
46675;SDS011;32412;51.478;5.694;2022-11-15T09:48:05;6.43;;;2.70;;
46675;SDS011;32412;51.478;5.694;2022-11-15T09:50:50;7.47;;;2.72;;
46675;SDS011;32412;51.478;5.694;2022-11-15T09:56:00;2.85;;;1.75;;
46675;SDS011;32412;51.478;5.694;2022-11-15T09:58:44;3.95;;;2.22;;
46675;SDS011;32412;51.478;5.694;2022-11-15T10:01:45;3.55;;;2.03;;
46675;SDS011;32412;51.478;5.694;2022-11-15T10:04:15;2.85;;;1.55;;
46675;SDS011;32412;51.478;5.694;2022-11-15T10:06:43;4.38;;;1.55;;
46675;SDS011;32412;51.478;5.694;2022-11-15T10:09:36;3.67;;;1.73;;
46675;SDS011;32412;51.478;5.694;2022-11-15T10:12:12;1.80;;;1.25;;
46675;SDS011;32412;51.478;5.694;2022-11-15T10:14:39;2.80;;;1.20;;
46675;SDS011;32412;51.478;5.694;2022-11-15T10:17:29;4.85;;;1.58;;
46675;SDS011;32412;51.478;5.694;2022-11-15T10:19:56;6.35;;;1.23;;
46675;SDS011;32412;51.478;5.694;2022-11-15T10:22:43;3.00;;;1.33;;
46675;SDS011;32412;51.478;5.694;2022-11-15T10:25:22;3.25;;;1.10;;
46675;SDS011;32412;51.478;5.694;2022-11-15T10:27:55;2.10;;;1.60;;
46675;SDS011;32412;51.478;5.694;2022-11-15T10:30:38;4.45;;;1.50;;
46675;SDS011;32412;51.478;5.694;2022-11-15T10:41:13;2.83;;;1.30;;
46675;SDS011;32412;51.478;5.694;2022-11-15T10:43:41;2.60;;;1.20;;
46675;SDS011;32412;51.478;5.694;2022-11-15T10:46:18;6.60;;;1.48;;
46675;SDS011;32412;51.478;5.694;2022-11-15T10:48:46;7.07;;;1.50;;
46675;SDS011;32412;51.478;5.694;2022-11-15T10:51:22;4.32;;;1.33;;
46675;SDS011;32412;51.478;5.694;2022-11-15T10:53:57;4.95;;;1.20;;
46675;SDS011;32412;51.478;5.694;2022-11-15T10:56:24;2.97;;;1.30;;
46675;SDS011;32412;51.478;5.694;2022-11-15T10:58:54;2.83;;;1.70;;
46675;SDS011;32412;51.478;5.694;2022-11-15T11:01:23;3.42;;;1.30;;
46675;SDS011;32412;51.478;5.694;2022-11-15T11:04:02;3.85;;;1.20;;
46675;SDS011;32412;51.478;5.694;2022-11-15T11:06:46;2.13;;;1.08;;
46675;SDS011;32412;51.478;5.694;2022-11-15T11:11:50;3.33;;;1.13;;
46675;SDS011;32412;51.478;5.694;2022-11-15T11:14:20;2.38;;;1.08;;
46675;SDS011;32412;51.478;5.694;2022-11-15T11:22:22;1.58;;;1.23;;
46675;SDS011;32412;51.478;5.694;2022-11-15T11:33:24;1.88;;;0.77;;
46675;SDS011;32412;51.478;5.694;2022-11-15T11:41:35;4.55;;;1.20;;
46675;SDS011;32412;51.478;5.694;2022-11-15T11:55:02;4.15;;;1.00;;
46675;SDS011;32412;51.478;5.694;2022-11-15T11:58:02;3.10;;;1.00;;
46675;SDS011;32412;51.478;5.694;2022-11-15T12:00:25;3.45;;;1.10;;
46675;SDS011;32412;51.478;5.694;2022-11-15T12:03:10;1.95;;;1.20;;
46675;SDS011;32412;51.478;5.694;2022-11-15T12:05:43;4.63;;;1.95;;
46675;SDS011;32412;51.478;5.694;2022-11-15T12:11:00;3.20;;;1.35;;
46675;SDS011;32412;51.478;5.694;2022-11-15T12:13:35;5.25;;;0.95;;
46675;SDS011;32412;51.478;5.694;2022-11-15T12:16:05;5.35;;;1.35;;
46675;SDS011;32412;51.478;5.694;2022-11-15T12:18:43;2.58;;;1.00;;
46675;SDS011;32412;51.478;5.694;2022-11-15T12:21:15;2.80;;;0.90;;
46675;SDS011;32412;51.478;5.694;2022-11-15T12:23:48;5.35;;;1.40;;
46675;SDS011;32412;51.478;5.694;2022-11-15T12:26:21;2.97;;;0.93;;
46675;SDS011;32412;51.478;5.694;2022-11-15T12:28:55;3.00;;;0.85;;
46675;SDS011;32412;51.478;5.694;2022-11-15T12:34:04;2.47;;;0.90;;
46675;SDS011;32412;51.478;5.694;2022-11-15T12:36:48;3.80;;;1.48;;
46675;SDS011;32412;51.478;5.694;2022-11-15T12:39:15;4.57;;;1.05;;
46675;SDS011;32412;51.478;5.694;2022-11-15T12:41:42;5.97;;;0.93;;
46675;SDS011;32412;51.478;5.694;2022-11-15T12:45:22;4.05;;;1.27;;
46675;SDS011;32412;51.478;5.694;2022-11-15T12:47:24;1.65;;;0.73;;
46675;SDS011;32412;51.478;5.694;2022-11-15T12:49:52;1.50;;;0.68;;
46675;SDS011;32412;51.478;5.694;2022-11-15T12:52:18;1.77;;;0.73;;
46675;SDS011;32412;51.478;5.694;2022-11-15T12:54:54;2.90;;;0.90;;
46675;SDS011;32412;51.478;5.694;2022-11-15T12:57:26;2.90;;;0.80;;
46675;SDS011;32412;51.478;5.694;2022-11-15T13:17:50;3.33;;;0.70;;
46675;SDS011;32412;51.478;5.694;2022-11-15T13:20:19;3.35;;;1.10;;
46675;SDS011;32412;51.478;5.694;2022-11-15T13:33:30;2.33;;;0.90;;
46675;SDS011;32412;51.478;5.694;2022-11-15T13:35:59;2.70;;;0.93;;
46675;SDS011;32412;51.478;5.694;2022-11-15T13:38:32;2.63;;;0.90;;
46675;SDS011;32412;51.478;5.694;2022-11-15T13:41:10;3.65;;;0.70;;
46675;SDS011;32412;51.478;5.694;2022-11-15T13:43:48;2.17;;;1.05;;
46675;SDS011;32412;51.478;5.694;2022-11-15T13:46:25;4.60;;;0.73;;
46675;SDS011;32412;51.478;5.694;2022-11-15T13:48:53;0.88;;;0.68;;
46675;SDS011;32412;51.478;5.694;2022-11-15T13:56:53;2.88;;;0.70;;
46675;SDS011;32412;51.478;5.694;2022-11-15T13:59:37;4.95;;;1.10;;
46675;SDS011;32412;51.478;5.694;2022-11-15T14:02:13;1.90;;;1.15;;
46675;SDS011;32412;51.478;5.694;2022-11-15T14:04:55;4.32;;;0.82;;
46675;SDS011;32412;51.478;5.694;2022-11-15T14:07:26;3.97;;;0.70;;
46675;SDS011;32412;51.478;5.694;2022-11-15T14:09:53;4.28;;;0.90;;
46675;SDS011;32412;51.478;5.694;2022-11-15T14:12:29;1.80;;;0.77;;
46675;SDS011;32412;51.478;5.694;2022-11-15T14:15:01;3.00;;;0.70;;
46675;SDS011;32412;51.478;5.694;2022-11-15T14:17:47;2.15;;;0.80;;
46675;SDS011;32412;51.478;5.694;2022-11-15T14:20:46;3.83;;;0.80;;
46675;SDS011;32412;51.478;5.694;2022-11-15T14:23:18;2.97;;;0.80;;
46675;SDS011;32412;51.478;5.694;2022-11-15T14:25:53;2.72;;;0.70;;
46675;SDS011;32412;51.478;5.694;2022-11-15T14:30:49;3.25;;;1.38;;
46675;SDS011;32412;51.478;5.694;2022-11-15T14:33:21;4.30;;;0.80;;
46675;SDS011;32412;51.478;5.694;2022-11-15T14:35:54;2.80;;;0.80;;
46675;SDS011;32412;51.478;5.694;2022-11-15T14:38:22;1.65;;;0.80;;
46675;SDS011;32412;51.478;5.694;2022-11-15T14:40:48;1.17;;;0.70;;
46675;SDS011;32412;51.478;5.694;2022-11-15T14:43:14;3.17;;;1.10;;
46675;SDS011;32412;51.478;5.694;2022-11-15T14:45:40;4.03;;;0.93;;
46675;SDS011;32412;51.478;5.694;2022-11-15T14:48:06;1.48;;;0.70;;
46675;SDS011;32412;51.478;5.694;2022-11-15T14:50:32;4.95;;;1.02;;
46675;SDS011;32412;51.478;5.694;2022-11-15T14:52:59;1.75;;;0.90;;
46675;SDS011;32412;51.478;5.694;2022-11-15T14:55:29;2.80;;;0.88;;
46675;SDS011;32412;51.478;5.694;2022-11-15T14:58:02;4.03;;;1.00;;
46675;SDS011;32412;51.478;5.694;2022-11-15T15:00:32;3.67;;;0.98;;
46675;SDS011;32412;51.478;5.694;2022-11-15T15:02:57;1.88;;;0.93;;
46675;SDS011;32412;51.478;5.694;2022-11-15T15:05:25;3.45;;;0.95;;
46675;SDS011;32412;51.478;5.694;2022-11-15T15:08:01;3.10;;;0.95;;
46675;SDS011;32412;51.478;5.694;2022-11-15T15:10:29;4.47;;;1.00;;
46675;SDS011;32412;51.478;5.694;2022-11-15T15:12:57;1.63;;;0.80;;
46675;SDS011;32412;51.478;5.694;2022-11-15T15:15:41;3.05;;;1.00;;
46675;SDS011;32412;51.478;5.694;2022-11-15T15:18:06;8.88;;;1.30;;
46675;SDS011;32412;51.478;5.694;2022-11-15T15:20:34;3.97;;;1.20;;
46675;SDS011;32412;51.478;5.694;2022-11-15T15:23:00;6.05;;;1.40;;
46675;SDS011;32412;51.478;5.694;2022-11-15T15:25:27;6.05;;;1.25;;
46675;SDS011;32412;51.478;5.694;2022-11-15T15:27:56;5.35;;;3.25;;
46675;SDS011;32412;51.478;5.694;2022-11-15T15:30:22;15.90;;;6.47;;
46675;SDS011;32412;51.478;5.694;2022-11-15T15:32:48;7.05;;;2.40;;
46675;SDS011;32412;51.478;5.694;2022-11-15T15:35:14;7.40;;;1.42;;
46675;SDS011;32412;51.478;5.694;2022-11-15T15:37:41;47.00;;;24.45;;
46675;SDS011;32412;51.478;5.694;2022-11-15T15:40:18;6.95;;;4.40;;
46675;SDS011;32412;51.478;5.694;2022-11-15T15:42:45;4.95;;;1.52;;
46675;SDS011;32412;51.478;5.694;2022-11-15T15:45:12;3.33;;;1.33;;
46675;SDS011;32412;51.478;5.694;2022-11-15T15:47:38;4.18;;;1.45;;
46675;SDS011;32412;51.478;5.694;2022-11-15T15:50:11;12.75;;;9.27;;
46675;SDS011;32412;51.478;5.694;2022-11-15T15:52:44;3.85;;;1.70;;
46675;SDS011;32412;51.478;5.694;2022-11-15T15:55:10;6.72;;;2.35;;
46675;SDS011;32412;51.478;5.694;2022-11-15T15:57:36;5.10;;;2.55;;
46675;SDS011;32412;51.478;5.694;2022-11-15T16:00:03;4.88;;;3.65;;
46675;SDS011;32412;51.478;5.694;2022-11-15T16:02:29;4.00;;;1.42;;
46675;SDS011;32412;51.478;5.694;2022-11-15T16:04:55;4.32;;;1.95;;
46675;SDS011;32412;51.478;5.694;2022-11-15T16:07:23;2.85;;;1.63;;
46675;SDS011;32412;51.478;5.694;2022-11-15T16:09:49;6.28;;;1.60;;
46675;SDS011;32412;51.478;5.694;2022-11-15T16:12:25;3.03;;;1.52;;
46675;SDS011;32412;51.478;5.694;2022-11-15T16:14:55;4.20;;;1.40;;
46675;SDS011;32412;51.478;5.694;2022-11-15T16:17:25;5.93;;;1.40;;
46675;SDS011;32412;51.478;5.694;2022-11-15T16:19:58;4.82;;;1.17;;
46675;SDS011;32412;51.478;5.694;2022-11-15T16:22:24;5.70;;;1.63;;
46675;SDS011;32412;51.478;5.694;2022-11-15T16:24:53;3.67;;;1.23;;
46675;SDS011;32412;51.478;5.694;2022-11-15T16:27:19;2.30;;;1.40;;
46675;SDS011;32412;51.478;5.694;2022-11-15T16:29:46;3.38;;;0.98;;
46675;SDS011;32412;51.478;5.694;2022-11-15T16:32:13;7.40;;;1.55;;
46675;SDS011;32412;51.478;5.694;2022-11-15T16:34:38;3.97;;;1.55;;
46675;SDS011;32412;51.478;5.694;2022-11-15T16:37:05;3.90;;;1.60;;
46675;SDS011;32412;51.478;5.694;2022-11-15T16:39:31;1.90;;;1.50;;
46675;SDS011;32412;51.478;5.694;2022-11-15T16:41:57;6.45;;;1.80;;
46675;SDS011;32412;51.478;5.694;2022-11-15T16:44:23;2.60;;;1.48;;
46675;SDS011;32412;51.478;5.694;2022-11-15T16:46:49;5.40;;;1.65;;
46675;SDS011;32412;51.478;5.694;2022-11-15T16:49:18;3.33;;;1.83;;
46675;SDS011;32412;51.478;5.694;2022-11-15T16:51:45;4.90;;;2.63;;
46675;SDS011;32412;51.478;5.694;2022-11-15T16:54:12;5.88;;;2.40;;
46675;SDS011;32412;51.478;5.694;2022-11-15T16:56:38;7.47;;;2.22;;
46675;SDS011;32412;51.478;5.694;2022-11-15T16:59:04;10.77;;;3.72;;
46675;SDS011;32412;51.478;5.694;2022-11-15T17:01:31;10.20;;;3.05;;
46675;SDS011;32412;51.478;5.694;2022-11-15T17:03:59;5.40;;;3.40;;
46675;SDS011;32412;51.478;5.694;2022-11-15T17:06:37;5.78;;;3.00;;